createdAt,value
2018-08-09T00:00:08.821Z,18.80
2018-08-09T00:02:37.663Z,18.90
2018-08-09T00:05:06.479Z,18.90
2018-08-09T00:07:35.140Z,18.90
2018-08-09T00:10:04.528Z,18.90
2018-08-09T00:12:33.284Z,19.00
2018-08-09T00:15:02.089Z,19.00
2018-08-09T00:17:30.854Z,19.10
2018-08-09T00:19:59.556Z,19.10
2018-08-09T00:22:28.152Z,19.20
2018-08-09T00:24:56.847Z,19.30
2018-08-09T00:27:25.568Z,19.30
2018-08-09T00:29:54.278Z,19.30
2018-08-09T00:32:33.326Z,19.30
2018-08-09T00:35:02.034Z,19.30
2018-08-09T00:37:30.707Z,19.20
2018-08-09T00:39:59.442Z,19.20
2018-08-09T00:42:28.188Z,19.10
2018-08-09T00:44:56.927Z,19.10
2018-08-09T00:47:25.671Z,19.20
2018-08-09T00:49:54.374Z,19.30
2018-08-09T00:52:23.073Z,19.30
2018-08-09T00:54:51.716Z,19.40
2018-08-09T00:57:20.479Z,19.40
2018-08-09T00:59:49.255Z,19.40
2018-08-09T01:02:17.928Z,19.40
2018-08-09T01:04:46.552Z,19.40
2018-08-09T01:07:15.282Z,19.40
2018-08-09T01:09:46.655Z,19.40
2018-08-09T01:12:15.270Z,19.30
2018-08-09T01:14:43.994Z,19.30
2018-08-09T01:17:12.690Z,19.30
2018-08-09T01:19:41.673Z,19.20
2018-08-09T01:22:10.370Z,19.20
2018-08-09T01:24:39.057Z,19.20
2018-08-09T01:27:09.262Z,19.10
2018-08-09T01:29:39.314Z,19.00
2018-08-09T01:32:08.061Z,19.00
2018-08-09T01:34:36.691Z,18.90
2018-08-09T01:37:05.395Z,18.80
2018-08-09T01:39:34.134Z,18.80
2018-08-09T01:42:14.020Z,18.70
2018-08-09T01:44:42.711Z,18.70
2018-08-09T01:47:11.433Z,18.60
2018-08-09T01:49:40.090Z,18.50
2018-08-09T01:52:08.861Z,18.50
2018-08-09T01:54:39.685Z,18.40
2018-08-09T01:57:08.407Z,18.40
2018-08-09T01:59:37.185Z,18.30
2018-08-09T02:02:05.901Z,18.40
2018-08-09T02:04:34.576Z,18.40
2018-08-09T02:07:03.276Z,18.30
2018-08-09T02:09:33.460Z,18.30
2018-08-09T02:12:03.493Z,18.30
2018-08-09T02:14:32.260Z,18.20
2018-08-09T02:17:01.361Z,18.20
2018-08-09T02:19:30.451Z,18.20
2018-08-09T02:21:59.145Z,18.20
2018-08-09T02:24:27.917Z,18.20
2018-08-09T02:26:56.723Z,18.20
2018-08-09T02:29:25.438Z,18.10
2018-08-09T02:31:54.126Z,18.10
2018-08-09T02:34:22.815Z,18.00
2018-08-09T02:36:51.558Z,17.90
2018-08-09T02:39:20.232Z,17.90
2018-08-09T02:41:49.100Z,17.80
2018-08-09T02:44:17.756Z,17.80
2018-08-09T02:46:46.505Z,17.80
2018-08-09T02:49:15.243Z,17.80
2018-08-09T02:51:43.943Z,17.70
2018-08-09T02:54:13.562Z,17.70
2018-08-09T02:56:42.266Z,17.70
2018-08-09T02:59:10.934Z,17.70
2018-08-09T03:01:39.616Z,17.60
2018-08-09T03:04:08.330Z,17.70
2018-08-09T03:06:37.014Z,17.70
2018-08-09T03:09:10.387Z,17.70
2018-08-09T03:11:39.098Z,17.70
2018-08-09T03:14:07.786Z,17.80
2018-08-09T03:16:36.464Z,17.80
2018-08-09T03:19:05.146Z,17.90
2018-08-09T03:21:33.810Z,18.00
2018-08-09T03:24:02.671Z,18.10
2018-08-09T03:26:31.338Z,18.20
2018-08-09T03:29:00.116Z,18.20
2018-08-09T03:31:28.840Z,18.30
2018-08-09T03:33:57.505Z,18.40
2018-08-09T03:36:26.188Z,18.40
2018-08-09T03:38:54.913Z,18.40
2018-08-09T03:41:23.611Z,18.50
2018-08-09T03:43:52.326Z,18.70
2018-08-09T03:46:21.009Z,18.70
2018-08-09T03:48:49.709Z,18.80
2018-08-09T03:51:18.386Z,18.80
2018-08-09T03:53:47.095Z,18.80
2018-08-09T03:56:15.776Z,18.80
2018-08-09T03:58:44.517Z,18.90
2018-08-09T04:01:13.225Z,18.90
2018-08-09T04:03:41.906Z,18.90
2018-08-09T04:06:10.694Z,18.90
2018-08-09T04:08:39.438Z,18.90
2018-08-09T04:11:08.155Z,18.90
2018-08-09T04:13:36.868Z,18.90
2018-08-09T04:16:06.042Z,18.90
2018-08-09T04:18:34.729Z,18.90
2018-08-09T04:21:03.469Z,18.80
2018-08-09T04:23:32.268Z,18.80
2018-08-09T04:26:00.870Z,18.80
2018-08-09T04:28:31.244Z,18.80
2018-08-09T04:31:17.010Z,18.90
2018-08-09T04:34:04.011Z,18.90
2018-08-09T04:36:38.439Z,18.90
2018-08-09T04:39:08.863Z,18.90
2018-08-09T04:41:47.589Z,19.00
2018-08-09T04:44:16.260Z,19.00
2018-08-09T04:46:44.911Z,19.00
2018-08-09T04:49:13.707Z,19.10
2018-08-09T04:51:42.348Z,19.10
2018-08-09T04:54:11.121Z,19.10
2018-08-09T04:56:39.812Z,19.20
2018-08-09T04:59:08.493Z,19.20
2018-08-09T05:01:38.242Z,19.10
2018-08-09T05:04:07.013Z,19.00
2018-08-09T05:06:42.791Z,19.00
2018-08-09T05:09:11.915Z,18.90
2018-08-09T05:11:41.443Z,18.90
2018-08-09T05:14:10.127Z,18.90
2018-08-09T05:16:39.362Z,18.90
2018-08-09T05:19:08.142Z,19.00
2018-08-09T05:21:36.905Z,19.00
2018-08-09T05:24:05.579Z,19.00
2018-08-09T05:26:34.175Z,18.90
2018-08-09T05:29:05.974Z,18.90
2018-08-09T05:31:34.772Z,18.90
2018-08-09T05:34:03.624Z,18.90
2018-08-09T05:36:32.381Z,18.80
2018-08-09T05:39:01.171Z,18.90
2018-08-09T05:41:29.943Z,18.90
2018-08-09T05:43:58.652Z,19.10
2018-08-09T05:46:27.454Z,19.40
2018-08-09T05:48:56.126Z,19.60
2018-08-09T05:51:24.904Z,19.90
2018-08-09T05:53:53.753Z,20.10
2018-08-09T05:56:22.546Z,20.30
2018-08-09T05:58:51.327Z,20.50
2018-08-09T06:01:20.097Z,20.60
2018-08-09T06:03:48.862Z,20.70
2018-08-09T06:06:17.633Z,20.80
2018-08-09T06:08:46.442Z,21.00
2018-08-09T06:11:15.299Z,21.10
2018-08-09T06:13:44.084Z,21.30
2018-08-09T06:16:17.469Z,21.40
2018-08-09T06:18:47.277Z,21.50
2018-08-09T06:21:16.106Z,21.60
2018-08-09T06:23:45.044Z,21.90
2018-08-09T06:26:13.797Z,22.10
2018-08-09T06:28:42.754Z,22.60
2018-08-09T06:31:11.471Z,23.30
2018-08-09T06:33:40.086Z,23.70
2018-08-09T06:36:08.860Z,24.10
2018-08-09T06:38:37.647Z,24.60
2018-08-09T06:41:06.620Z,25.00
2018-08-09T06:43:35.306Z,25.70
2018-08-09T06:46:04.038Z,25.70
2018-08-09T06:48:32.796Z,25.30
2018-08-09T06:51:01.454Z,24.90
2018-08-09T06:53:30.081Z,24.60
2018-08-09T06:55:58.757Z,24.50
2018-08-09T06:58:27.465Z,24.60
2018-08-09T07:00:56.175Z,24.80
2018-08-09T07:03:24.851Z,25.00
2018-08-09T07:11:38.906Z,27.30
2018-08-09T07:14:13.232Z,27.00
2018-08-09T07:16:42.080Z,27.10
2018-08-09T07:19:10.817Z,28.40
2018-08-09T07:21:39.491Z,30.70
2018-08-09T07:24:08.301Z,33.00
2018-08-09T07:26:37.006Z,33.60
2018-08-09T07:29:05.721Z,33.20
2018-08-09T07:31:34.333Z,33.10
2018-08-09T07:34:03.060Z,33.60
2018-08-09T07:36:31.780Z,33.50
2018-08-09T07:39:00.473Z,34.10
2018-08-09T07:41:29.102Z,35.10
2018-08-09T07:43:57.746Z,36.20
2018-08-09T07:46:26.449Z,37.30
2018-08-09T07:48:55.135Z,36.80
2018-08-09T07:51:23.858Z,36.60
2018-08-09T07:53:52.530Z,36.90
2018-08-09T07:56:21.288Z,36.90
2018-08-09T07:58:49.970Z,37.90
2018-08-09T08:01:18.647Z,38.50
2018-08-09T08:03:47.418Z,39.80
2018-08-09T08:06:16.174Z,40.50
2018-08-09T08:08:44.726Z,40.80
2018-08-09T08:11:13.478Z,40.90
2018-08-09T08:13:46.890Z,41.20
2018-08-09T08:16:15.489Z,42.00
2018-08-09T08:18:44.174Z,42.50
2018-08-09T08:21:12.776Z,43.20
2018-08-09T08:23:41.445Z,43.70
2018-08-09T08:26:10.035Z,43.60
2018-08-09T08:28:38.579Z,44.20
2018-08-09T08:31:07.294Z,44.70
2018-08-09T08:33:35.836Z,44.80
2018-08-09T08:36:04.522Z,45.20
2018-08-09T08:38:33.081Z,45.10
2018-08-09T08:41:01.704Z,45.40
2018-08-09T08:43:30.320Z,45.40
2018-08-09T08:45:58.946Z,44.10
2018-08-09T08:48:27.550Z,44.10
2018-08-09T08:50:56.120Z,44.10
2018-08-09T08:53:24.786Z,43.90
2018-08-09T08:55:53.395Z,42.90
2018-08-09T08:58:22.000Z,41.80
2018-08-09T09:00:50.696Z,42.30
2018-08-09T09:03:19.279Z,43.70
2018-08-09T09:05:47.852Z,43.40
2018-08-09T09:08:22.946Z,43.50
2018-08-09T09:10:53.377Z,43.70
2018-08-09T09:13:22.258Z,44.30
2018-08-09T09:15:50.837Z,43.40
2018-08-09T09:18:19.396Z,43.90
2018-08-09T09:20:47.924Z,44.10
2018-08-09T09:23:16.369Z,43.90
2018-08-09T09:25:44.847Z,41.70
2018-08-09T09:28:13.325Z,41.90
2018-08-09T09:30:41.809Z,42.50
2018-08-09T09:33:10.253Z,43.50
2018-08-09T09:35:38.739Z,43.40
2018-08-09T09:38:07.224Z,43.70
2018-08-09T09:40:35.838Z,43.90
2018-08-09T09:43:04.406Z,44.20
2018-08-09T09:45:33.000Z,44.10
2018-08-09T09:48:01.637Z,43.70
2018-08-09T09:50:30.217Z,43.70
2018-08-09T09:52:58.859Z,43.60
2018-08-09T09:55:27.399Z,42.90
2018-08-09T09:57:56.060Z,41.50
2018-08-09T10:00:29.745Z,40.50
2018-08-09T10:02:58.390Z,39.80
2018-08-09T10:05:27.046Z,38.70
2018-08-09T10:07:55.582Z,39.10
2018-08-09T10:10:24.169Z,39.40
2018-08-09T10:12:52.678Z,41.20
2018-08-09T10:15:21.261Z,39.80
2018-08-09T10:17:49.801Z,39.30
2018-08-09T10:20:18.402Z,38.30
2018-08-09T10:22:47.005Z,39.00
2018-08-09T10:25:15.576Z,39.10
2018-08-09T10:27:44.198Z,40.70
2018-08-09T10:30:12.825Z,40.10
2018-08-09T10:32:41.370Z,41.10
2018-08-09T10:35:09.984Z,42.50
2018-08-09T10:37:38.576Z,43.20
2018-08-09T10:40:07.142Z,44.10
2018-08-09T10:42:35.699Z,44.20
2018-08-09T10:45:04.557Z,43.40
2018-08-09T10:47:33.175Z,42.90
2018-08-09T10:50:01.763Z,42.70
2018-08-09T10:52:30.413Z,43.40
2018-08-09T10:54:59.019Z,44.10
2018-08-09T10:57:27.657Z,43.40
2018-08-09T10:59:56.267Z,42.30
2018-08-09T11:02:24.886Z,41.50
2018-08-09T11:04:53.532Z,42.00
2018-08-09T11:07:22.090Z,41.50
2018-08-09T11:09:50.673Z,38.80
2018-08-09T11:12:36.036Z,39.50
2018-08-09T11:15:06.332Z,39.70
2018-08-09T11:17:34.862Z,40.40
2018-08-09T11:20:21.586Z,39.00
2018-08-09T11:22:54.450Z,39.60
2018-08-09T11:25:23.069Z,40.70
2018-08-09T11:27:51.976Z,41.30
2018-08-09T11:30:20.596Z,42.00
2018-08-09T11:32:49.206Z,42.80
2018-08-09T11:35:17.838Z,42.00
2018-08-09T11:37:46.431Z,41.90
2018-08-09T11:40:16.006Z,42.60
2018-08-09T11:42:56.343Z,41.80
2018-08-09T11:45:24.889Z,40.60
2018-08-09T11:47:53.496Z,40.30
2018-08-09T11:50:22.070Z,39.70
2018-08-09T11:52:50.611Z,40.20
2018-08-09T11:55:19.201Z,40.20
2018-08-09T11:57:47.874Z,40.10
2018-08-09T12:00:16.496Z,39.30
2018-08-09T12:02:45.131Z,39.30
2018-08-09T12:05:13.715Z,41.00
2018-08-09T12:07:42.357Z,42.20
2018-08-09T12:10:10.979Z,42.70
2018-08-09T12:12:39.715Z,41.60
2018-08-09T12:15:08.387Z,39.70
2018-08-09T12:17:37.048Z,38.40
2018-08-09T12:20:06.640Z,39.30
2018-08-09T12:22:35.429Z,38.10
2018-08-09T12:25:04.237Z,37.00
2018-08-09T12:27:32.975Z,37.00
2018-08-09T12:30:16.041Z,37.00
2018-08-09T12:32:45.267Z,36.10
2018-08-09T12:35:14.278Z,37.40
2018-08-09T12:37:43.631Z,38.10
2018-08-09T12:40:13.128Z,37.30
2018-08-09T12:42:41.933Z,37.50
2018-08-09T12:45:12.111Z,38.80
2018-08-09T12:47:41.097Z,40.30
2018-08-09T12:50:13.067Z,39.20
2018-08-09T12:52:42.990Z,37.70
2018-08-09T12:55:12.611Z,37.50
2018-08-09T12:57:41.223Z,37.30
2018-08-09T13:00:12.035Z,37.10
2018-08-09T13:02:40.899Z,37.50
2018-08-09T13:05:10.932Z,37.90
2018-08-09T13:07:39.768Z,38.50
2018-08-09T13:10:10.437Z,38.70
2018-08-09T13:12:40.204Z,38.40
2018-08-09T13:15:12.044Z,36.90
2018-08-09T13:17:41.290Z,35.50
2018-08-09T13:20:12.855Z,35.00
2018-08-09T13:22:41.557Z,34.10
2018-08-09T13:25:10.230Z,33.60
2018-08-09T13:27:39.019Z,32.10
2018-08-09T13:30:10.525Z,30.50
2018-08-09T13:32:39.257Z,29.50
2018-08-09T13:35:08.701Z,28.50
2018-08-09T13:37:37.524Z,28.70
2018-08-09T13:40:07.779Z,28.10
2018-08-09T13:42:37.178Z,27.50
2018-08-09T13:45:07.418Z,27.00
2018-08-09T13:47:36.477Z,26.60
2018-08-09T13:50:06.057Z,26.40
2018-08-09T13:52:34.885Z,26.20
2018-08-09T13:55:04.203Z,26.20
2018-08-09T13:57:33.368Z,25.80
2018-08-09T14:00:02.389Z,25.70
2018-08-09T14:02:34.702Z,25.90
2018-08-09T14:05:03.548Z,26.50
2018-08-09T14:07:32.457Z,27.20
2018-08-09T14:10:03.414Z,27.60
2018-08-09T14:12:32.403Z,27.60
2018-08-09T14:15:01.062Z,27.20
2018-08-09T14:17:29.843Z,27.30
2018-08-09T14:19:58.689Z,27.30
2018-08-09T14:22:27.562Z,27.30
2018-08-09T14:24:56.457Z,27.40
2018-08-09T14:27:33.577Z,27.20
2018-08-09T14:30:02.453Z,27.10
2018-08-09T14:32:31.423Z,27.20
2018-08-09T14:35:00.215Z,27.20
2018-08-09T14:37:29.155Z,27.10
2018-08-09T14:39:58.099Z,27.30
2018-08-09T14:42:27.006Z,27.40
2018-08-09T14:44:56.557Z,27.40
2018-08-09T14:47:41.688Z,27.30
2018-08-09T14:50:27.495Z,27.00
2018-08-09T14:52:56.359Z,27.10
2018-08-09T14:55:25.161Z,26.70
2018-08-09T14:57:54.982Z,27.00
2018-08-09T15:00:24.890Z,27.10
2018-08-09T15:02:55.744Z,27.10
2018-08-09T15:08:22.448Z,27.00
2018-08-09T15:10:51.297Z,26.80
2018-08-09T15:13:20.077Z,26.80
2018-08-09T15:15:48.854Z,26.70
2018-08-09T15:18:17.795Z,26.80
2018-08-09T15:20:46.632Z,26.90
2018-08-09T15:23:15.475Z,26.90
2018-08-09T15:25:44.311Z,26.80
2018-08-09T15:28:13.155Z,26.90
2018-08-09T15:30:41.881Z,26.90
2018-08-09T15:33:10.696Z,27.00
2018-08-09T15:35:39.571Z,27.00
2018-08-09T15:38:08.398Z,27.00
2018-08-09T15:40:37.056Z,27.20
2018-08-09T15:43:05.939Z,27.00
2018-08-09T15:45:40.468Z,27.00
2018-08-09T15:51:02.779Z,27.20
2018-08-09T15:53:31.573Z,26.90
2018-08-09T15:56:00.294Z,26.80
2018-08-09T15:58:38.800Z,26.60
2018-08-09T16:01:07.555Z,26.50
2018-08-09T16:03:36.628Z,26.20
2018-08-09T16:06:05.338Z,26.20
2018-08-09T16:08:34.177Z,26.10
2018-08-09T16:11:02.899Z,26.00
2018-08-09T16:13:31.628Z,25.80
2018-08-09T16:16:00.342Z,25.70
2018-08-09T16:18:29.186Z,25.60
2018-08-09T16:20:57.997Z,25.50
2018-08-09T16:23:26.756Z,25.50
2018-08-09T16:25:55.538Z,25.60
2018-08-09T16:28:24.199Z,25.50
2018-08-09T16:30:55.046Z,25.50
2018-08-09T16:33:23.795Z,25.60
2018-08-09T16:35:52.537Z,25.70
2018-08-09T16:38:23.334Z,25.80
2018-08-09T16:40:52.167Z,25.80
2018-08-09T16:43:20.997Z,26.00
2018-08-09T16:45:49.806Z,25.90
2018-08-09T16:48:18.623Z,25.80
2018-08-09T16:50:47.513Z,25.80
2018-08-09T16:53:16.332Z,25.80
2018-08-09T16:55:44.990Z,25.70
2018-08-09T16:58:13.755Z,25.50
2018-08-09T17:00:42.538Z,25.40
2018-08-09T17:03:11.487Z,25.30
2018-08-09T17:05:40.210Z,25.10
2018-08-09T17:08:08.956Z,25.10
2018-08-09T17:10:37.683Z,25.00
2018-08-09T17:13:06.722Z,25.00
2018-08-09T17:15:35.744Z,24.60
2018-08-09T17:18:10.923Z,24.30
2018-08-09T17:20:41.368Z,24.10
2018-08-09T17:23:10.193Z,23.80
2018-08-09T17:25:39.092Z,23.40
2018-08-09T17:28:09.899Z,22.60
2018-08-09T17:30:42.898Z,21.50
2018-08-09T17:33:11.773Z,20.60
2018-08-09T17:35:40.541Z,20.00
2018-08-09T17:38:09.272Z,19.60
2018-08-09T17:43:44.866Z,19.20
2018-08-09T17:46:29.704Z,19.10
2018-08-09T17:49:18.368Z,19.00
2018-08-09T17:51:47.203Z,18.90
2018-08-09T17:54:16.100Z,18.90
2018-08-09T17:56:44.968Z,18.90
2018-08-09T17:59:13.796Z,18.80
2018-08-09T18:01:42.674Z,18.70
2018-08-09T18:04:11.535Z,18.70
2018-08-09T18:06:40.364Z,18.60
2018-08-09T18:09:10.680Z,18.70
2018-08-09T18:11:39.980Z,18.60
2018-08-09T18:14:20.995Z,18.70
2018-08-09T18:16:49.832Z,18.70
2018-08-09T18:19:26.846Z,18.70
2018-08-09T18:21:55.806Z,18.70
2018-08-09T18:24:24.739Z,18.70
2018-08-09T18:26:53.538Z,18.60
2018-08-09T18:29:22.262Z,18.60
2018-08-09T18:31:51.084Z,18.60
2018-08-09T18:37:15.690Z,18.40
2018-08-09T18:39:52.331Z,18.40
2018-08-09T18:42:26.963Z,18.40
2018-08-09T18:44:55.751Z,18.40
2018-08-09T18:47:41.668Z,18.30
2018-08-09T18:50:12.984Z,18.40
2018-08-09T18:52:42.097Z,18.40
2018-08-09T18:55:35.318Z,18.50
2018-08-09T18:58:04.186Z,18.60
2018-08-09T19:00:45.172Z,18.60
2018-08-09T19:03:13.965Z,18.60
2018-08-09T19:05:42.864Z,18.60
2018-08-09T19:08:11.674Z,18.70
2018-08-09T19:10:40.502Z,18.70
2018-08-09T19:13:09.329Z,18.70
2018-08-09T19:15:38.228Z,18.70
2018-08-09T19:18:07.557Z,18.70
2018-08-09T19:20:36.760Z,18.70
2018-08-09T19:23:06.090Z,18.70
2018-08-09T19:25:59.554Z,18.70
2018-08-09T19:28:28.309Z,18.80
2018-08-09T19:30:57.023Z,18.70
2018-08-09T19:33:25.984Z,18.60
2018-08-09T19:35:54.717Z,18.60
2018-08-09T19:38:23.604Z,18.60
2018-08-09T19:40:52.530Z,18.60
2018-08-09T19:43:21.383Z,18.60
2018-08-09T19:48:57.139Z,18.60
2018-08-09T19:51:26.099Z,18.60
2018-08-09T19:56:48.821Z,18.70
2018-08-09T19:59:17.601Z,18.80
2018-08-09T20:01:46.347Z,18.80
2018-08-09T20:04:15.154Z,18.90
2018-08-09T20:06:44.061Z,19.10
2018-08-09T20:09:12.875Z,19.20
2018-08-09T20:11:41.725Z,19.30
2018-08-09T20:14:10.584Z,19.50
2018-08-09T20:16:39.351Z,19.40
2018-08-09T20:19:08.138Z,19.50
2018-08-09T20:21:37.031Z,19.60
2018-08-09T20:24:05.970Z,19.60
2018-08-09T20:26:34.821Z,19.60
2018-08-09T20:29:03.720Z,19.50
2018-08-09T20:31:32.561Z,19.50
2018-08-09T20:34:01.322Z,19.50
2018-08-09T20:36:30.078Z,19.50
2018-08-09T20:38:58.958Z,19.60
2018-08-09T20:41:27.654Z,19.70
2018-08-09T20:43:56.534Z,19.70
2018-08-09T20:46:25.327Z,19.80
2018-08-09T20:48:54.182Z,19.80
2018-08-09T20:51:23.163Z,19.80
2018-08-09T20:53:51.992Z,19.80
2018-08-09T20:56:20.750Z,19.80
2018-08-09T20:58:49.517Z,19.80
2018-08-09T21:01:18.349Z,19.80
2018-08-09T21:03:47.188Z,19.70
2018-08-09T21:06:16.014Z,19.70
2018-08-09T21:08:44.776Z,19.70
2018-08-09T21:11:13.574Z,19.70
2018-08-09T21:13:42.253Z,19.70
2018-08-09T21:16:10.904Z,19.70
2018-08-09T21:18:39.621Z,19.70
2018-08-09T21:21:08.517Z,19.60
2018-08-09T21:23:37.246Z,19.60
2018-08-09T21:26:06.142Z,19.60
2018-08-09T21:28:34.907Z,19.60
2018-08-09T21:31:03.683Z,19.60
2018-08-09T21:33:32.558Z,19.60
2018-08-09T21:36:01.381Z,19.50
2018-08-09T21:38:30.133Z,19.50
2018-08-09T21:40:58.962Z,19.50
2018-08-09T21:43:27.627Z,19.50
2018-08-09T21:45:56.550Z,19.50
2018-08-09T21:48:25.890Z,19.50
2018-08-09T21:50:54.715Z,19.50
2018-08-09T21:53:23.577Z,19.40
2018-08-09T21:55:52.322Z,19.40
2018-08-09T21:58:21.144Z,19.40
2018-08-09T22:00:54.515Z,19.30
2018-08-09T22:03:25.369Z,19.30
2018-08-09T22:05:59.210Z,19.30
2018-08-09T22:08:33.171Z,19.30
2018-08-09T22:11:07.301Z,19.40
2018-08-09T22:13:41.361Z,19.30
2018-08-09T22:16:15.314Z,19.30
2018-08-09T22:18:49.367Z,19.20
2018-08-09T22:21:24.499Z,19.20
2018-08-09T22:23:53.418Z,19.10
2018-08-09T22:26:22.226Z,19.10
2018-08-09T22:28:51.052Z,19.10
2018-08-09T22:31:19.954Z,19.10
2018-08-09T22:33:48.758Z,19.00
2018-08-09T22:36:17.551Z,19.00
2018-08-09T22:38:46.310Z,19.00
2018-08-09T22:41:15.065Z,19.00
2018-08-09T22:43:43.826Z,18.90
2018-08-09T22:46:12.622Z,18.90
2018-08-09T22:48:41.459Z,18.90
2018-08-09T22:51:10.166Z,18.80
2018-08-09T22:53:38.931Z,18.80
2018-08-09T22:56:07.835Z,18.80
2018-08-09T22:58:36.799Z,18.70
2018-08-09T23:01:05.851Z,18.70
2018-08-09T23:03:34.700Z,18.70
2018-08-09T23:06:03.507Z,18.70
2018-08-09T23:08:32.184Z,18.70
2018-08-09T23:11:00.958Z,18.60
2018-08-09T23:13:29.694Z,18.50
2018-08-09T23:15:58.420Z,18.50
2018-08-09T23:18:27.077Z,18.30
2018-08-09T23:20:55.956Z,18.30
2018-08-09T23:23:24.690Z,18.20
2018-08-09T23:25:53.413Z,18.10
2018-08-09T23:28:22.128Z,18.10
2018-08-09T23:30:50.845Z,18.00
2018-08-09T23:33:22.861Z,18.00
2018-08-09T23:35:51.633Z,17.90
2018-08-09T23:38:20.438Z,17.90
2018-08-09T23:40:49.302Z,17.90
2018-08-09T23:43:18.047Z,18.00
2018-08-09T23:45:51.091Z,18.00
2018-08-09T23:48:19.863Z,18.10
2018-08-09T23:50:48.938Z,18.10
2018-08-09T23:53:17.714Z,18.10
2018-08-09T23:55:46.505Z,18.20
2018-08-09T23:58:15.118Z,18.40
